首页
METAR-TAF:

METAR-TAF

机场 :

伊斯特爾, 法国

纬度: 43-31N, 经度: 004-56E, 海拔: 23米

当前天气观测

该预报发布于18分钟前的19:00 UTC
风速15节,风向
温度 11°C
湿度 43%
气压 1028 hPa
能见度10公里或以上
1500米以下无云,无积雨云

METAR: LFMI 181900Z AUTO 35015KT CAVOK 11/M01 Q1028 BECMG 31015G25KT

时间: 20:18 (19:18 UTC)

预报

该预报发布于5小时和18分钟前的14:00 UTC
预报有效从18日的 15点(UTC)到 19日的 15点(UTC)
风速15节,风向西北,有时为25节阵风
能见度10公里或以上
1500米以下无云,无积雨云
短暂存在
从 18日的 15点(UTC)到 18日的 18点(UTC)
风速25节,风向北转西北,有时为35节阵风

TAF: LFMI 181400Z 1815/1915 31015G25KT CAVOK TEMPO 1815/1818 33025G35KT

超过4000个机场的气象观测和天气预报(METAR&TAF报告)。

可查询的气象台以黄色和红色小点在地图上表示。

将鼠标移到小点上方,可查看气象台名称。

然后点击查看天气观测和预报。

如需切换地图:点击带黑十字的绿色按钮放大地图;点击带横线的绿色按钮缩小地图;或者点击绿色箭头查看邻近地区的地图。


METAR-TAF: